createdAt,value
2019-01-13T00:03:33.596Z,6.90
2019-01-13T00:06:21.524Z,6.90
2019-01-13T00:09:09.498Z,6.90
2019-01-13T00:11:57.541Z,6.90
2019-01-13T00:14:45.448Z,6.90
2019-01-13T00:17:33.405Z,6.90
2019-01-13T00:20:21.302Z,7.00
2019-01-13T00:23:09.348Z,7.00
2019-01-13T00:25:57.244Z,7.00
2019-01-13T00:28:45.189Z,7.00
2019-01-13T00:31:33.094Z,7.00
2019-01-13T00:37:14.842Z,7.00
2019-01-13T00:42:37.284Z,6.90
2019-01-13T00:45:08.285Z,7.00
2019-01-13T00:47:36.900Z,7.00
2019-01-13T00:50:11.299Z,6.90
2019-01-13T00:52:39.860Z,6.90
2019-01-13T00:55:10.346Z,6.90
2019-01-13T00:57:38.937Z,6.90
2019-01-13T01:00:10.636Z,6.90
2019-01-13T01:02:39.317Z,6.90
2019-01-13T01:05:09.872Z,6.90
2019-01-13T01:07:38.497Z,6.90
2019-01-13T01:10:10.109Z,6.90
2019-01-13T01:12:58.065Z,6.80
2019-01-13T01:15:46.022Z,6.90
2019-01-13T01:18:33.917Z,6.80
2019-01-13T01:21:21.868Z,6.80
2019-01-13T01:24:10.214Z,6.80
2019-01-13T01:26:58.156Z,6.80
2019-01-13T01:29:46.057Z,6.80
2019-01-13T01:32:34.012Z,6.80
2019-01-13T01:35:21.914Z,6.80
2019-01-13T01:38:10.433Z,6.80
2019-01-13T01:40:58.325Z,6.80
2019-01-13T01:43:46.304Z,6.80
2019-01-13T01:46:26.626Z,6.90
2019-01-13T01:49:07.489Z,6.90
2019-01-13T01:51:48.170Z,6.90
2019-01-13T01:54:29.329Z,6.80
2019-01-13T01:57:10.174Z,6.80
2019-01-13T01:59:50.848Z,6.90
2019-01-13T02:02:31.242Z,6.90
2019-01-13T02:05:11.869Z,6.90
2019-01-13T02:07:52.910Z,6.90
2019-01-13T02:10:34.088Z,6.80
2019-01-13T02:13:15.413Z,6.80
2019-01-13T02:15:56.033Z,6.80
2019-01-13T02:18:37.288Z,6.80
2019-01-13T02:21:17.761Z,6.80
2019-01-13T02:23:58.184Z,6.80
2019-01-13T02:26:38.558Z,6.80
2019-01-13T02:29:19.498Z,6.80
2019-01-13T02:31:59.981Z,6.80
2019-01-13T02:34:40.772Z,6.70
2019-01-13T02:37:21.267Z,6.70
2019-01-13T02:40:02.381Z,6.70
2019-01-13T02:42:43.669Z,6.70
2019-01-13T02:45:24.188Z,6.70
2019-01-13T02:48:05.126Z,6.70
2019-01-13T02:50:46.294Z,6.70
2019-01-13T02:53:26.784Z,6.70
2019-01-13T02:56:07.888Z,6.70
2019-01-13T02:58:48.455Z,6.70
2019-01-13T03:01:28.828Z,6.70
2019-01-13T03:04:09.652Z,6.70
2019-01-13T03:06:50.938Z,6.70
2019-01-13T03:09:31.525Z,6.80
2019-01-13T03:12:12.133Z,6.80
2019-01-13T03:14:53.227Z,6.80
2019-01-13T03:17:33.983Z,6.80
2019-01-13T03:20:02.680Z,6.80
2019-01-13T03:22:31.267Z,6.80
2019-01-13T03:24:59.824Z,6.80
2019-01-13T03:27:47.753Z,6.80
2019-01-13T03:30:35.686Z,6.80
2019-01-13T03:33:23.652Z,6.80
2019-01-13T03:36:11.537Z,6.80
2019-01-13T03:38:59.480Z,6.80
2019-01-13T03:41:47.460Z,6.80
2019-01-13T03:44:28.741Z,6.80
2019-01-13T03:47:09.710Z,6.80
2019-01-13T03:49:50.278Z,6.80
2019-01-13T03:52:31.189Z,6.80
2019-01-13T03:55:11.705Z,6.80
2019-01-13T03:57:52.356Z,6.90
2019-01-13T04:00:33.311Z,6.90
2019-01-13T04:03:14.723Z,6.90
2019-01-13T04:05:55.285Z,6.90
2019-01-13T04:08:34.998Z,6.90
2019-01-13T04:11:22.893Z,6.90
2019-01-13T04:14:10.828Z,6.90
2019-01-13T04:16:58.912Z,6.90
2019-01-13T04:19:46.872Z,6.90
2019-01-13T04:22:34.874Z,6.90
2019-01-13T04:25:22.829Z,6.90
2019-01-13T04:28:10.756Z,6.90
2019-01-13T04:30:58.694Z,6.90
2019-01-13T04:33:46.598Z,6.90
2019-01-13T04:36:34.541Z,6.90
2019-01-13T04:39:22.645Z,6.80
2019-01-13T04:45:02.241Z,6.90
2019-01-13T04:47:42.888Z,6.80
2019-01-13T04:50:23.954Z,6.90
2019-01-13T04:53:04.700Z,6.90
2019-01-13T04:55:45.316Z,6.90
2019-01-13T04:58:26.216Z,6.90
2019-01-13T05:01:07.446Z,6.90
2019-01-13T05:03:47.885Z,6.90
2019-01-13T05:06:29.080Z,6.90
2019-01-13T05:09:10.532Z,6.90
2019-01-13T05:11:51.587Z,6.90
2019-01-13T05:14:32.400Z,6.80
2019-01-13T05:17:12.956Z,6.80
2019-01-13T05:19:53.872Z,6.80
2019-01-13T05:22:34.676Z,6.80
2019-01-13T05:25:03.312Z,6.80
2019-01-13T05:30:46.285Z,6.80
2019-01-13T05:33:14.908Z,6.80
2019-01-13T05:35:43.627Z,6.80
2019-01-13T05:38:12.683Z,6.80
2019-01-13T05:40:41.456Z,6.80
2019-01-13T05:43:12.808Z,6.80
2019-01-13T05:45:41.494Z,6.90
2019-01-13T05:51:38.065Z,6.90
2019-01-13T05:54:26.189Z,6.90
2019-01-13T05:57:14.145Z,6.90
2019-01-13T06:00:02.205Z,6.90
2019-01-13T06:05:45.017Z,6.90
2019-01-13T06:08:33.209Z,6.90
2019-01-13T06:11:14.846Z,6.90
2019-01-13T06:13:57.220Z,6.90
2019-01-13T06:16:37.924Z,6.90
2019-01-13T06:19:18.783Z,6.90
2019-01-13T06:24:42.570Z,6.90
2019-01-13T06:27:22.861Z,6.90
2019-01-13T06:30:04.323Z,6.90
2019-01-13T06:32:45.492Z,6.90
2019-01-13T06:35:26.164Z,6.90
2019-01-13T06:40:49.321Z,6.90
2019-01-13T06:43:30.287Z,6.90
2019-01-13T06:46:11.495Z,6.80
2019-01-13T06:48:52.150Z,6.80
2019-01-13T06:51:33.308Z,6.90
2019-01-13T06:54:14.054Z,6.90
2019-01-13T06:56:55.130Z,6.90
2019-01-13T06:59:35.836Z,7.00
2019-01-13T07:02:16.244Z,7.00
2019-01-13T07:04:57.321Z,7.10
2019-01-13T07:07:38.441Z,7.00
2019-01-13T07:10:19.900Z,7.00
2019-01-13T07:13:01.049Z,6.90
2019-01-13T07:15:41.432Z,6.90
2019-01-13T07:18:21.887Z,6.90
2019-01-13T07:21:03.269Z,6.90
2019-01-13T07:23:43.814Z,6.90
2019-01-13T07:26:24.395Z,6.80
2019-01-13T07:29:05.216Z,6.90
2019-01-13T07:31:33.781Z,6.90
2019-01-13T07:34:21.706Z,6.90
2019-01-13T07:37:09.648Z,6.90
2019-01-13T07:39:57.557Z,6.90
2019-01-13T07:42:45.573Z,6.80
2019-01-13T07:45:33.472Z,6.90
2019-01-13T07:48:21.417Z,6.90
2019-01-13T07:51:09.331Z,7.00
2019-01-13T07:53:57.257Z,7.00
2019-01-13T07:56:45.355Z,7.00
2019-01-13T08:02:40.172Z,7.00
2019-01-13T08:08:35.046Z,7.00
2019-01-13T08:11:22.954Z,7.00
2019-01-13T08:14:10.921Z,7.30
2019-01-13T08:16:51.777Z,7.40
2019-01-13T08:19:32.741Z,7.30
2019-01-13T08:22:13.441Z,7.30
2019-01-13T08:24:54.189Z,7.20
2019-01-13T08:27:34.817Z,7.20
2019-01-13T08:30:15.484Z,7.10
2019-01-13T08:32:55.930Z,7.10
2019-01-13T08:35:36.841Z,7.10
2019-01-13T08:38:17.210Z,7.10
2019-01-13T08:40:58.351Z,7.10
2019-01-13T08:43:39.341Z,7.20
2019-01-13T08:46:07.898Z,7.20
2019-01-13T08:48:48.928Z,7.10
2019-01-13T08:51:31.672Z,7.20
2019-01-13T08:54:12.613Z,7.20
2019-01-13T08:56:52.924Z,7.30
2019-01-13T08:59:33.629Z,7.30
2019-01-13T09:02:15.085Z,7.30
2019-01-13T09:04:59.291Z,7.30
2019-01-13T09:07:40.417Z,7.40
2019-01-13T09:10:20.972Z,7.40
2019-01-13T09:13:01.559Z,7.40
2019-01-13T09:15:41.929Z,7.40
2019-01-13T09:18:22.589Z,7.40
2019-01-13T09:21:02.965Z,7.40
2019-01-13T09:23:43.565Z,7.50
2019-01-13T09:26:24.873Z,7.50
2019-01-13T09:29:06.020Z,7.80
2019-01-13T09:31:47.556Z,7.60
2019-01-13T09:34:28.718Z,7.60
2019-01-13T09:37:09.413Z,7.60
2019-01-13T09:39:50.088Z,7.70
2019-01-13T09:42:31.288Z,7.70
2019-01-13T09:45:12.310Z,7.70
2019-01-13T09:47:40.865Z,7.80
2019-01-13T09:50:28.861Z,7.80
2019-01-13T09:53:16.801Z,7.80
2019-01-13T09:56:04.786Z,7.90
2019-01-13T09:58:52.794Z,7.90
2019-01-13T10:01:40.693Z,8.00
2019-01-13T10:04:28.639Z,8.00
2019-01-13T10:07:16.532Z,8.00
2019-01-13T10:10:25.209Z,8.10
2019-01-13T10:16:20.021Z,8.10
2019-01-13T10:19:07.925Z,8.20
2019-01-13T10:21:55.929Z,8.10
2019-01-13T10:24:24.482Z,8.10
2019-01-13T10:26:53.050Z,8.10
2019-01-13T10:29:21.653Z,8.10
2019-01-13T10:31:50.280Z,8.10
2019-01-13T10:34:18.836Z,8.10
2019-01-13T10:36:47.433Z,8.20
2019-01-13T10:39:15.991Z,8.20
2019-01-13T10:41:44.557Z,8.20
2019-01-13T10:44:13.157Z,8.20
2019-01-13T10:46:41.813Z,8.30
2019-01-13T10:49:10.379Z,8.30
2019-01-13T10:51:38.959Z,8.30
2019-01-13T10:54:09.218Z,8.40
2019-01-13T10:56:37.765Z,8.40
2019-01-13T10:59:25.860Z,8.50
2019-01-13T11:02:13.805Z,8.50
2019-01-13T11:05:01.706Z,8.50
2019-01-13T11:08:11.714Z,8.50
2019-01-13T11:14:06.833Z,8.50
2019-01-13T11:16:54.737Z,8.50
2019-01-13T11:19:42.819Z,8.50
2019-01-13T11:22:30.700Z,8.60
2019-01-13T11:25:18.665Z,8.60
2019-01-13T11:28:06.630Z,8.60
2019-01-13T11:30:54.589Z,8.60
2019-01-13T11:33:42.481Z,8.60
2019-01-13T11:39:23.940Z,8.60
2019-01-13T11:42:11.954Z,8.70
2019-01-13T11:45:00.050Z,8.70
2019-01-13T11:47:47.991Z,8.70
2019-01-13T11:50:19.178Z,8.70
2019-01-13T11:52:48.585Z,8.70
2019-01-13T11:55:18.521Z,8.80
2019-01-13T11:57:47.439Z,8.70
2019-01-13T12:00:24.360Z,8.70
2019-01-13T12:02:53.012Z,8.60
2019-01-13T12:05:40.918Z,8.70
2019-01-13T12:08:29.809Z,8.70
2019-01-13T12:11:17.714Z,8.70
2019-01-13T12:14:05.667Z,8.70
2019-01-13T12:20:00.460Z,8.70
2019-01-13T12:23:02.822Z,8.70
2019-01-13T12:25:38.536Z,8.70
2019-01-13T12:30:59.393Z,8.60
2019-01-13T12:33:40.050Z,8.60
2019-01-13T12:36:21.405Z,8.70
2019-01-13T12:39:04.188Z,8.60
2019-01-13T12:41:45.307Z,8.70
2019-01-13T12:44:25.677Z,8.70
2019-01-13T12:47:06.392Z,8.80
2019-01-13T12:49:46.778Z,8.80
2019-01-13T12:52:15.338Z,8.80
2019-01-13T12:54:44.034Z,8.70
2019-01-13T12:57:12.660Z,8.70
2019-01-13T12:59:41.716Z,8.70
2019-01-13T13:02:10.286Z,8.70
2019-01-13T13:04:38.961Z,8.70
2019-01-13T13:07:07.558Z,8.70
2019-01-13T13:09:36.151Z,8.70
2019-01-13T13:12:04.985Z,8.70
2019-01-13T13:14:34.013Z,8.70
2019-01-13T13:17:02.781Z,8.70
2019-01-13T13:19:31.500Z,8.70
2019-01-13T13:22:00.124Z,8.70
2019-01-13T13:24:48.134Z,8.70
2019-01-13T13:27:36.232Z,8.70
2019-01-13T13:30:44.906Z,8.80
2019-01-13T13:33:44.527Z,8.80
2019-01-13T13:36:22.479Z,8.80
2019-01-13T13:39:10.498Z,8.80
2019-01-13T13:41:59.120Z,8.80
2019-01-13T13:44:47.077Z,8.80
2019-01-13T13:47:35.235Z,8.80
2019-01-13T13:50:15.830Z,8.70
2019-01-13T13:52:56.341Z,8.70
2019-01-13T13:55:37.221Z,8.70
2019-01-13T13:58:17.694Z,8.70
2019-01-13T14:00:47.419Z,8.70
2019-01-13T14:03:16.216Z,8.70
2019-01-13T14:08:58.089Z,8.70
2019-01-13T14:11:46.169Z,8.70
2019-01-13T14:14:34.117Z,8.70
2019-01-13T14:17:22.053Z,8.70
2019-01-13T14:20:29.311Z,8.70
2019-01-13T14:23:17.213Z,8.70
2019-01-13T14:26:19.989Z,8.70
2019-01-13T14:32:01.752Z,8.70
2019-01-13T14:34:49.695Z,8.60
2019-01-13T14:37:18.265Z,8.50
2019-01-13T14:40:26.922Z,8.50
2019-01-13T14:46:21.742Z,8.50
2019-01-13T14:49:09.651Z,8.50
2019-01-13T14:51:57.603Z,8.50
2019-01-13T14:54:46.919Z,8.40
2019-01-13T14:57:35.229Z,8.40
2019-01-13T15:00:43.845Z,8.40
2019-01-13T15:03:31.805Z,8.30
2019-01-13T15:06:19.705Z,8.30
2019-01-13T15:12:02.789Z,8.20
2019-01-13T15:14:50.689Z,8.20
2019-01-13T15:17:38.638Z,8.20
2019-01-13T15:20:26.604Z,8.20
2019-01-13T15:23:14.557Z,8.20
2019-01-13T15:26:02.444Z,8.20
2019-01-13T15:31:44.072Z,8.20
2019-01-13T15:34:32.020Z,8.20
2019-01-13T15:37:19.923Z,8.20
2019-01-13T15:40:27.321Z,8.10
2019-01-13T15:43:15.228Z,8.10
2019-01-13T15:46:03.181Z,8.10
2019-01-13T15:48:51.080Z,8.00
2019-01-13T15:51:39.048Z,8.00
2019-01-13T15:54:26.954Z,7.90
2019-01-13T15:57:07.362Z,7.90
2019-01-13T15:59:48.365Z,7.90
2019-01-13T16:02:29.881Z,7.90
2019-01-13T16:05:10.728Z,7.80
2019-01-13T16:07:51.473Z,7.80
2019-01-13T16:10:32.367Z,7.80
2019-01-13T16:13:13.098Z,7.70
2019-01-13T16:15:53.673Z,7.80
2019-01-13T16:18:34.683Z,7.70
2019-01-13T16:21:15.260Z,7.80
2019-01-13T16:23:56.578Z,7.80
2019-01-13T16:26:37.056Z,7.80
2019-01-13T16:29:17.937Z,7.70
2019-01-13T16:31:59.110Z,7.70
2019-01-13T16:34:39.909Z,7.70
2019-01-13T16:37:20.262Z,7.70
2019-01-13T16:40:01.081Z,7.60
2019-01-13T16:42:41.716Z,7.60
2019-01-13T16:45:22.799Z,7.60
2019-01-13T16:48:03.449Z,7.70
2019-01-13T16:50:44.481Z,7.70
2019-01-13T16:53:25.345Z,7.70
2019-01-13T16:56:05.760Z,7.70
2019-01-13T16:58:34.321Z,7.40
2019-01-13T17:01:02.912Z,7.70
2019-01-13T17:03:31.500Z,7.70
2019-01-13T17:06:00.098Z,7.80
2019-01-13T17:08:28.655Z,7.80
2019-01-13T17:10:57.261Z,7.70
2019-01-13T17:13:25.821Z,7.70
2019-01-13T17:15:54.381Z,7.80
2019-01-13T17:18:23.153Z,8.20
2019-01-13T17:20:51.689Z,8.70
2019-01-13T17:23:39.621Z,9.10
2019-01-13T17:26:27.529Z,9.50
2019-01-13T17:32:09.386Z,9.00
2019-01-13T17:34:57.283Z,8.60
2019-01-13T17:37:45.196Z,8.30
2019-01-13T17:40:33.146Z,8.20
2019-01-13T17:43:21.049Z,8.20
2019-01-13T17:46:08.985Z,8.10
2019-01-13T17:48:56.883Z,8.00
2019-01-13T17:51:44.833Z,8.00
2019-01-13T17:54:32.774Z,8.00
2019-01-13T17:57:01.343Z,8.00
2019-01-13T17:59:30.049Z,7.90
2019-01-13T18:01:58.671Z,7.90
2019-01-13T18:04:46.623Z,7.90
2019-01-13T18:07:34.521Z,7.90
2019-01-13T18:10:22.478Z,7.90
2019-01-13T18:13:10.453Z,7.90
2019-01-13T18:15:58.413Z,7.90
2019-01-13T18:21:54.945Z,7.90
2019-01-13T18:24:42.860Z,7.90
2019-01-13T18:27:30.804Z,7.90
2019-01-13T18:30:38.030Z,7.90
2019-01-13T18:33:25.983Z,7.80
2019-01-13T18:35:54.612Z,7.80
2019-01-13T18:38:23.294Z,7.70
2019-01-13T18:40:51.913Z,7.70
2019-01-13T18:43:20.592Z,7.70
2019-01-13T18:46:23.596Z,7.70
2019-01-13T18:48:58.454Z,7.60
2019-01-13T18:51:46.400Z,7.60
2019-01-13T18:54:34.305Z,7.60
2019-01-13T18:57:15.208Z,7.60
2019-01-13T18:59:55.849Z,7.60
2019-01-13T19:02:37.036Z,7.60
2019-01-13T19:05:17.691Z,7.60
2019-01-13T19:07:58.389Z,7.60
2019-01-13T19:10:39.645Z,7.60
2019-01-13T19:13:20.940Z,7.60
2019-01-13T19:19:15.305Z,7.60
2019-01-13T19:21:56.473Z,7.60
2019-01-13T19:24:37.409Z,7.60
2019-01-13T19:27:17.997Z,7.60
2019-01-13T19:29:58.991Z,7.60
2019-01-13T19:32:39.614Z,7.50
2019-01-13T19:35:20.658Z,7.50
2019-01-13T19:38:01.332Z,7.50
2019-01-13T19:40:42.573Z,7.50
2019-01-13T19:43:23.066Z,7.50
2019-01-13T19:46:03.898Z,7.50
2019-01-13T19:48:45.033Z,7.50
2019-01-13T19:51:26.065Z,7.50
2019-01-13T19:54:06.460Z,7.50
2019-01-13T19:56:47.268Z,7.50
2019-01-13T19:59:28.180Z,7.60
2019-01-13T20:02:09.169Z,7.60
2019-01-13T20:04:49.765Z,7.60
2019-01-13T20:07:30.769Z,7.60
2019-01-13T20:10:11.621Z,7.60
2019-01-13T20:12:52.053Z,7.60
2019-01-13T20:15:33.582Z,7.50
2019-01-13T20:18:14.530Z,7.50
2019-01-13T20:20:55.523Z,7.50
2019-01-13T20:23:36.466Z,7.40
2019-01-13T20:26:17.149Z,7.40
2019-01-13T20:28:57.946Z,7.30
2019-01-13T20:31:39.025Z,7.20
2019-01-13T20:34:19.575Z,7.10
2019-01-13T20:37:00.489Z,7.10
2019-01-13T20:39:41.746Z,7.00
2019-01-13T20:42:22.907Z,7.00
2019-01-13T20:45:03.644Z,6.90
2019-01-13T20:47:44.452Z,6.90
2019-01-13T20:50:24.834Z,6.80
2019-01-13T20:53:05.965Z,6.80
2019-01-13T20:55:46.591Z,6.70
2019-01-13T20:58:27.184Z,6.70
2019-01-13T21:01:07.782Z,6.70
2019-01-13T21:03:48.639Z,6.60
2019-01-13T21:06:29.953Z,6.60
2019-01-13T21:08:58.692Z,6.60
2019-01-13T21:11:27.216Z,6.50
2019-01-13T21:14:27.111Z,6.60
2019-01-13T21:17:04.725Z,6.50
2019-01-13T21:19:52.752Z,6.50
2019-01-13T21:22:40.893Z,6.50
2019-01-13T21:25:28.873Z,6.50
2019-01-13T21:31:25.322Z,6.50
2019-01-13T21:34:13.226Z,6.40
2019-01-13T21:37:01.168Z,6.40
2019-01-13T21:39:49.093Z,6.40
2019-01-13T21:42:29.486Z,6.40
2019-01-13T21:45:10.730Z,6.40
2019-01-13T21:47:51.815Z,6.40
2019-01-13T21:50:32.749Z,6.30
2019-01-13T21:53:14.069Z,6.30
2019-01-13T21:55:54.938Z,6.30
2019-01-13T21:58:36.104Z,6.20
2019-01-13T22:01:17.058Z,6.20
2019-01-13T22:03:57.460Z,6.20
2019-01-13T22:06:38.341Z,6.20
2019-01-13T22:09:19.578Z,6.20
2019-01-13T22:12:00.035Z,6.10
2019-01-13T22:14:40.618Z,6.10
2019-01-13T22:17:21.904Z,6.10
2019-01-13T22:20:02.562Z,6.10
2019-01-13T22:22:43.070Z,6.10
2019-01-13T22:25:24.165Z,6.10
2019-01-13T22:27:52.733Z,6.00
2019-01-13T22:30:22.987Z,6.00
2019-01-13T22:32:51.818Z,6.00
2019-01-13T22:35:20.501Z,5.90
2019-01-13T22:37:55.684Z,5.90
2019-01-13T22:40:19.641Z,5.90
2019-01-13T22:43:07.570Z,5.80
2019-01-13T22:48:49.526Z,5.70
2019-01-13T22:51:37.570Z,5.70
2019-01-13T22:54:25.449Z,5.70
2019-01-13T22:57:13.404Z,5.70
2019-01-13T23:03:08.232Z,5.60
2019-01-13T23:05:36.804Z,5.60
2019-01-13T23:08:05.437Z,5.60
2019-01-13T23:10:34.036Z,5.60
2019-01-13T23:13:03.016Z,5.50
2019-01-13T23:15:31.576Z,5.50
2019-01-13T23:18:00.151Z,5.50
2019-01-13T23:20:28.756Z,5.50
2019-01-13T23:22:57.321Z,5.50
2019-01-13T23:25:46.060Z,5.40
2019-01-13T23:28:33.978Z,5.40
2019-01-13T23:37:08.206Z,5.40
2019-01-13T23:39:56.104Z,5.30
2019-01-13T23:42:44.028Z,5.20
2019-01-13T23:45:26.233Z,5.20
2019-01-13T23:48:07.582Z,5.20
2019-01-13T23:50:48.713Z,5.10
2019-01-13T23:53:29.917Z,5.10
2019-01-13T23:56:10.286Z,5.00
2019-01-13T23:58:51.495Z,5.00
